createdAt,value
2017-06-02T00:00:38.202Z,63.3
2017-06-02T00:01:41.301Z,63.3
2017-06-02T00:02:43.513Z,63.4
2017-06-02T00:03:46.361Z,63.5
2017-06-02T00:04:49.207Z,63.5
2017-06-02T00:05:52.061Z,63.9
2017-06-02T00:06:55.072Z,64
2017-06-02T00:07:57.783Z,63.9
2017-06-02T00:09:00.127Z,64.2
2017-06-02T00:10:02.972Z,64.4
2017-06-02T00:11:05.686Z,64.6
2017-06-02T00:12:08.785Z,64.8
2017-06-02T00:13:11.496Z,64.7
2017-06-02T00:14:14.341Z,64.5
2017-06-02T00:15:16.682Z,64.3
2017-06-02T00:16:19.762Z,64.3
2017-06-02T00:17:22.722Z,64.7
2017-06-02T00:18:25.066Z,64.6
2017-06-02T00:19:27.919Z,64.7
2017-06-02T00:20:30.763Z,64.9
2017-06-02T00:21:33.613Z,65.1
2017-06-02T00:22:36.710Z,65
2017-06-02T00:23:38.917Z,65
2017-06-02T00:24:41.633Z,64.9
2017-06-02T00:25:44.479Z,64.7
2017-06-02T00:26:47.200Z,64.6
2017-06-02T00:27:50.352Z,65
2017-06-02T00:28:52.699Z,64.9
2017-06-02T00:29:55.544Z,65.2
2017-06-02T00:30:58.390Z,65.1
2017-06-02T00:32:00.758Z,65.3
2017-06-02T00:33:03.855Z,65.2
2017-06-02T00:34:06.563Z,65.4
2017-06-02T00:35:09.417Z,65
2017-06-02T00:36:12.128Z,65.2
2017-06-02T00:37:14.978Z,65.3
2017-06-02T00:38:17.673Z,65.6
2017-06-02T00:39:20.518Z,65.1
2017-06-02T00:40:22.863Z,65.1
2017-06-02T00:41:25.571Z,65
2017-06-02T00:42:28.657Z,65
2017-06-02T00:43:31.806Z,64.9
2017-06-02T00:44:34.153Z,64.8
2017-06-02T00:45:37.000Z,65.2
2017-06-02T00:46:39.342Z,65.1
2017-06-02T00:47:42.056Z,65
2017-06-02T00:48:45.528Z,65.1
2017-06-02T00:49:47.873Z,65.6
2017-06-02T00:50:50.715Z,65.5
2017-06-02T00:51:53.425Z,65.1
2017-06-02T00:52:56.273Z,65.2
2017-06-02T00:53:59.235Z,64.8
2017-06-02T00:55:01.811Z,65
2017-06-02T00:56:04.155Z,65
2017-06-02T00:57:07.005Z,65.4
2017-06-02T00:58:09.716Z,65.3
2017-06-02T00:59:12.729Z,65.6
2017-06-02T01:00:15.440Z,65.8
2017-06-02T01:01:18.013Z,66
2017-06-02T01:02:20.719Z,66.2
2017-06-02T01:03:23.561Z,66.2
2017-06-02T01:04:26.705Z,66.2
2017-06-02T01:05:29.042Z,66.3
2017-06-02T01:06:31.755Z,66.3
2017-06-02T01:07:34.672Z,66.7
2017-06-02T01:08:37.526Z,66.6
2017-06-02T01:09:40.124Z,66.8
2017-06-02T01:10:42.972Z,67.1
2017-06-02T01:11:46.377Z,67
2017-06-02T01:12:48.217Z,67.2
2017-06-02T01:13:50.926Z,67
2017-06-02T01:14:54.076Z,67.1
2017-06-02T01:15:56.482Z,67.3
2017-06-02T01:16:59.330Z,67.1
2017-06-02T01:18:02.177Z,67.3
2017-06-02T01:19:04.891Z,67.3
2017-06-02T01:20:07.902Z,67.4
2017-06-02T01:21:10.244Z,67.7
2017-06-02T01:22:13.091Z,67.9
2017-06-02T01:23:15.802Z,68.1
2017-06-02T01:24:18.651Z,68.4
2017-06-02T01:25:21.745Z,68.5
2017-06-02T01:26:23.881Z,68.4
2017-06-02T01:27:26.594Z,68.6
2017-06-02T01:28:29.438Z,69
2017-06-02T01:29:32.286Z,69
2017-06-02T01:30:35.458Z,69.1
2017-06-02T01:31:37.806Z,69.2
2017-06-02T01:32:40.651Z,69.2
2017-06-02T01:33:43.363Z,69
2017-06-02T01:34:46.212Z,69.1
2017-06-02T01:35:49.176Z,69
2017-06-02T01:36:51.516Z,69.1
2017-06-02T01:37:54.364Z,69.1
2017-06-02T01:38:57.073Z,69.1
2017-06-02T01:39:59.917Z,69.6
2017-06-02T01:41:02.516Z,69.7
2017-06-02T01:42:05.231Z,69.5
2017-06-02T01:43:07.945Z,69.4
2017-06-02T01:44:10.669Z,69.7
2017-06-02T01:45:13.382Z,69.7
2017-06-02T01:46:16.344Z,69.7
2017-06-02T01:47:19.058Z,70
2017-06-02T01:48:21.403Z,70.2
2017-06-02T01:49:24.118Z,70.4
2017-06-02T01:50:26.963Z,70.2
2017-06-02T01:51:30.059Z,70.3
2017-06-02T01:52:32.402Z,70.4
2017-06-02T01:53:35.117Z,70.7
2017-06-02T01:54:37.960Z,70.6
2017-06-02T01:55:40.673Z,70.7
2017-06-02T01:56:43.823Z,70.7
2017-06-02T01:57:46.162Z,70.9
2017-06-02T01:58:49.007Z,71
2017-06-02T01:59:51.716Z,71
2017-06-02T02:00:54.564Z,71.2
2017-06-02T02:01:57.716Z,71
2017-06-02T02:03:00.062Z,71.3
2017-06-02T02:04:02.910Z,71.5
2017-06-02T02:05:05.253Z,71.4
2017-06-02T02:06:07.958Z,71.6
2017-06-02T02:08:13.846Z,71.7
2017-06-02T02:09:16.190Z,72
2017-06-02T02:10:18.902Z,71.6
2017-06-02T02:11:21.612Z,71.9
2017-06-02T02:12:24.329Z,71.7
2017-06-02T02:13:27.428Z,71.8
2017-06-02T02:14:29.841Z,71.6
2017-06-02T02:15:32.553Z,71.5
2017-06-02T02:16:35.394Z,71.4
2017-06-02T02:17:38.238Z,71.4
2017-06-02T02:18:41.334Z,71.3
2017-06-02T02:19:43.679Z,71.5
2017-06-02T02:20:46.525Z,71.6
2017-06-02T02:21:49.379Z,71.7
2017-06-02T02:22:51.723Z,71.7
2017-06-02T02:23:54.818Z,71.9
2017-06-02T02:24:57.525Z,71.9
2017-06-02T02:25:59.869Z,71.9
2017-06-02T02:27:02.714Z,72.1
2017-06-02T02:28:05.789Z,72.2
2017-06-02T02:29:08.817Z,72.2
2017-06-02T02:30:11.021Z,72.4
2017-06-02T02:31:13.867Z,72.6
2017-06-02T02:32:16.718Z,72.6
2017-06-02T02:33:19.434Z,72.7
2017-06-02T02:34:21.893Z,72.8
2017-06-02T02:35:24.601Z,72.7
2017-06-02T02:36:27.453Z,72.8
2017-06-02T02:37:30.306Z,73.1
2017-06-02T02:38:33.017Z,73.7
2017-06-02T02:39:36.116Z,73.9
2017-06-02T02:40:38.459Z,74
2017-06-02T02:41:41.311Z,74
2017-06-02T02:42:43.656Z,73.9
2017-06-02T02:43:46.744Z,74
2017-06-02T02:44:49.754Z,74.2
2017-06-02T02:45:52.097Z,74.2
2017-06-02T02:46:54.944Z,74.1
2017-06-02T02:47:57.289Z,73.9
2017-06-02T02:49:00.129Z,73.7
2017-06-02T02:50:03.092Z,73.6
2017-06-02T02:51:05.432Z,73.6
2017-06-02T02:52:08.142Z,73.5
2017-06-02T02:53:10.859Z,73.5
2017-06-02T02:54:14.075Z,73.5
2017-06-02T02:55:16.727Z,73.4
2017-06-02T02:56:19.439Z,73.4
2017-06-02T02:57:21.644Z,73
2017-06-02T02:58:24.856Z,73
2017-06-02T02:59:27.574Z,73
2017-06-02T03:00:30.671Z,73.1
2017-06-02T03:01:33.018Z,72.9
2017-06-02T03:02:35.732Z,72.8
2017-06-02T03:03:38.576Z,72.8
2017-06-02T03:04:40.916Z,72.9
2017-06-02T03:05:44.012Z,72.8
2017-06-02T03:06:46.352Z,72.7
2017-06-02T03:07:49.201Z,72.8
2017-06-02T03:08:52.053Z,72.7
2017-06-02T03:09:54.763Z,72.7
2017-06-02T03:10:57.860Z,72.9
2017-06-02T03:12:00.200Z,72.8
2017-06-02T03:13:03.048Z,72.8
2017-06-02T03:15:08.170Z,72.9
2017-06-02T03:16:11.368Z,72.7
2017-06-02T03:17:13.780Z,72.7
2017-06-02T03:18:16.488Z,72.7
2017-06-02T03:20:21.981Z,72.7
2017-06-02T03:21:24.946Z,72.8
2017-06-02T03:22:27.525Z,72.7
2017-06-02T03:23:30.371Z,72.9
2017-06-02T03:24:33.215Z,72.9
2017-06-02T03:25:35.561Z,72.9
2017-06-02T03:26:38.659Z,72.8
2017-06-02T03:27:41.004Z,72.8
2017-06-02T03:28:43.711Z,72.5
2017-06-02T03:29:46.550Z,72.5
2017-06-02T03:30:49.401Z,72.5
2017-06-02T03:31:52.228Z,72.5
2017-06-02T03:32:54.937Z,72.4
2017-06-02T03:33:57.781Z,72.3
2017-06-02T03:34:59.988Z,72.3
2017-06-02T03:36:02.848Z,72.2
2017-06-02T03:37:05.820Z,72.2
2017-06-02T03:38:08.661Z,72.2
2017-06-02T03:39:11.373Z,72.3
2017-06-02T03:40:13.715Z,72
2017-06-02T03:41:16.561Z,72
2017-06-02T03:42:19.655Z,71.9
2017-06-02T03:43:21.990Z,71.9
2017-06-02T03:44:25.401Z,71.9
2017-06-02T03:45:27.743Z,71.7
2017-06-02T03:46:30.086Z,71.4
2017-06-02T03:47:33.182Z,71
2017-06-02T03:48:35.523Z,70.9
2017-06-02T03:49:38.366Z,70.7
2017-06-02T03:50:41.215Z,70.6
2017-06-02T03:51:44.056Z,70.4
2017-06-02T03:52:47.154Z,70.1
2017-06-02T03:53:49.224Z,69.9
2017-06-02T03:54:52.064Z,69.6
2017-06-02T03:55:54.642Z,69.3
2017-06-02T03:56:57.724Z,69
2017-06-02T03:58:00.823Z,68.7
2017-06-02T03:59:03.169Z,68.6
2017-06-02T04:00:06.015Z,68.4
2017-06-02T04:01:08.730Z,68.2
2017-06-02T04:02:11.575Z,67.9
2017-06-02T04:03:14.542Z,67.7
2017-06-02T04:04:16.744Z,67.5
2017-06-02T04:05:19.457Z,67.3
2017-06-02T04:06:22.305Z,67.1
2017-06-02T04:07:25.149Z,66.9
2017-06-02T04:08:28.250Z,66.3
2017-06-02T04:09:30.606Z,66.1
2017-06-02T04:10:33.455Z,65.9
2017-06-02T04:11:36.300Z,65.6
2017-06-02T04:12:39.145Z,65.2
2017-06-02T04:13:42.239Z,64.5
2017-06-02T04:14:44.579Z,64.2
2017-06-02T04:15:47.423Z,63.9
2017-06-02T04:16:50.270Z,63.6
2017-06-02T04:17:52.608Z,63.3
2017-06-02T04:19:58.486Z,62.9
2017-06-02T04:21:01.330Z,62.9
2017-06-02T04:22:04.039Z,62.7
2017-06-02T04:23:06.881Z,62.3
2017-06-02T04:24:09.726Z,61.7
2017-06-02T04:25:12.558Z,61.6
2017-06-02T04:27:17.546Z,61.6
2017-06-02T04:28:20.387Z,61.3
2017-06-02T04:29:23.231Z,60.9
2017-06-02T04:30:26.325Z,60.9
2017-06-02T04:31:29.032Z,61
2017-06-02T04:32:31.744Z,61
2017-06-02T04:33:34.584Z,60.8
2017-06-02T04:34:37.443Z,60.9
2017-06-02T04:35:40.545Z,60.9
2017-06-02T04:36:42.752Z,60.4
2017-06-02T04:37:45.596Z,60.4
2017-06-02T04:38:48.308Z,60
2017-06-02T04:39:50.888Z,59.5
2017-06-02T04:40:54.488Z,58.9
2017-06-02T04:41:56.695Z,58.9
2017-06-02T04:42:59.534Z,58.8
2017-06-02T04:44:02.118Z,57.7
2017-06-02T04:45:05.467Z,57.5
2017-06-02T04:46:08.123Z,57.7
2017-06-02T04:47:10.699Z,57.1
2017-06-02T04:48:13.404Z,57
2017-06-02T04:49:16.246Z,57.2
2017-06-02T04:50:19.090Z,56.8
2017-06-02T04:51:22.193Z,56.6
2017-06-02T04:53:27.450Z,56.4
2017-06-02T04:54:30.296Z,56.5
2017-06-02T04:55:33.379Z,55.9
2017-06-02T04:56:36.473Z,55.8
2017-06-02T04:57:39.182Z,55.6
2017-06-02T04:58:41.522Z,55.3
2017-06-02T04:59:44.372Z,55.2
2017-06-02T05:00:47.216Z,55
2017-06-02T05:01:50.320Z,55.1
2017-06-02T05:02:53.165Z,54.8
2017-06-02T05:03:56.013Z,55
2017-06-02T05:04:58.726Z,54.5
2017-06-02T05:06:01.575Z,54.4
2017-06-02T05:07:04.674Z,54.2
2017-06-02T05:08:06.879Z,54.4
2017-06-02T05:09:09.584Z,53.5
2017-06-02T05:10:12.800Z,53.2
2017-06-02T05:11:15.647Z,52.8
2017-06-02T05:12:18.662Z,52.8
2017-06-02T05:13:21.009Z,52.7
2017-06-02T05:14:24.221Z,52.3
2017-06-02T05:16:29.842Z,52.7
2017-06-02T05:17:32.991Z,53.1
2017-06-02T05:18:35.198Z,52.6
2017-06-02T05:19:38.419Z,52.2
2017-06-02T05:20:41.268Z,52.5
2017-06-02T05:21:44.115Z,52.3
2017-06-02T05:22:47.222Z,51.7
2017-06-02T05:23:49.565Z,51.5
2017-06-02T05:24:52.413Z,51.5
2017-06-02T05:25:54.988Z,51.4
2017-06-02T05:26:58.339Z,51.3
2017-06-02T05:28:01.439Z,51.2
2017-06-02T05:29:03.512Z,51.3
2017-06-02T05:30:06.596Z,51.6
2017-06-02T05:31:09.448Z,51
2017-06-02T05:32:12.526Z,51.5
2017-06-02T05:33:15.625Z,51.3
2017-06-02T05:34:17.964Z,50.6
2017-06-02T05:35:20.672Z,50.5
2017-06-02T05:36:23.755Z,50.3
2017-06-02T05:37:26.471Z,50
2017-06-02T05:38:29.804Z,50
2017-06-02T05:40:35.067Z,49.6
2017-06-02T05:41:37.912Z,49.2
2017-06-02T05:42:40.622Z,49.4
2017-06-02T05:43:44.217Z,49.2
2017-06-02T05:44:46.925Z,49.4
2017-06-02T05:46:52.549Z,49.8
2017-06-02T05:47:55.320Z,49.5
2017-06-02T05:48:58.416Z,49.2
2017-06-02T05:50:00.624Z,48.9
2017-06-02T05:51:03.969Z,49.2
2017-06-02T05:52:06.677Z,49.7
2017-06-02T05:53:09.523Z,50.8
2017-06-02T05:54:12.486Z,51.6
2017-06-02T05:55:15.201Z,51.8
2017-06-02T05:56:18.046Z,51.1
2017-06-02T05:57:20.887Z,50.7
2017-06-02T05:58:23.731Z,50.4
2017-06-02T05:59:26.833Z,49.7
2017-06-02T06:00:29.544Z,49.1
2017-06-02T06:01:32.251Z,48.4
2017-06-02T06:02:35.597Z,48.1
2017-06-02T06:03:38.443Z,48.4
2017-06-02T06:04:41.404Z,48.6
2017-06-02T06:05:44.245Z,48
2017-06-02T06:06:46.952Z,47.7
2017-06-02T06:07:49.798Z,47.7
2017-06-02T06:08:52.649Z,47.8
2017-06-02T06:09:55.743Z,47.4
2017-06-02T06:10:58.455Z,47.1
2017-06-02T06:12:01.735Z,47.8
2017-06-02T06:13:04.102Z,47.8
2017-06-02T06:14:07.074Z,48.5
2017-06-02T06:15:10.038Z,48.6
2017-06-02T06:16:12.881Z,49.1
2017-06-02T06:17:15.592Z,49.3
2017-06-02T06:18:18.437Z,50.1
2017-06-02T06:19:21.078Z,50.2
2017-06-02T06:20:24.409Z,50.2
2017-06-02T06:21:27.118Z,49.7
2017-06-02T06:22:29.962Z,49.5
2017-06-02T06:23:32.808Z,49.2
2017-06-02T06:24:35.653Z,48.6
2017-06-02T06:25:38.752Z,48.4
2017-06-02T06:26:41.595Z,48.1
2017-06-02T06:27:44.440Z,48.4
2017-06-02T06:28:47.290Z,47.5
2017-06-02T06:29:50.135Z,47.6
2017-06-02T06:30:53.099Z,47.6
2017-06-02T06:31:55.807Z,47.1
2017-06-02T06:32:58.651Z,46.4
2017-06-02T06:34:01.495Z,46.3
2017-06-02T06:35:04.344Z,46.1
2017-06-02T06:36:07.306Z,46.5
2017-06-02T06:37:10.515Z,46.6
2017-06-02T06:38:13.365Z,46.3
2017-06-02T06:40:19.129Z,46
2017-06-02T06:41:22.094Z,45.8
2017-06-02T06:42:24.806Z,45.2
2017-06-02T06:43:27.519Z,44.7
2017-06-02T06:44:30.933Z,43.9
2017-06-02T06:45:33.276Z,43.7
2017-06-02T06:46:36.945Z,44.1
2017-06-02T06:47:39.284Z,43.9
2017-06-02T06:48:41.996Z,43.4
2017-06-02T06:49:44.704Z,43.1
2017-06-02T06:50:48.059Z,42.7
2017-06-02T06:51:51.024Z,42.3
2017-06-02T06:52:53.735Z,42.3
2017-06-02T06:53:56.446Z,42.6
2017-06-02T06:54:59.788Z,42.7
2017-06-02T06:56:02.636Z,42
2017-06-02T06:57:05.739Z,42
2017-06-02T06:58:07.951Z,42.5
2017-06-02T06:59:11.189Z,42
2017-06-02T07:00:13.903Z,41.6
2017-06-02T07:01:17.254Z,41
2017-06-02T07:02:20.349Z,40.9
2017-06-02T07:02:50.474Z,40.9
2017-06-02T07:03:22.986Z,40.6
2017-06-02T07:04:25.826Z,39.8
2017-06-02T07:05:28.534Z,39.4
2017-06-02T07:06:31.382Z,39.9
2017-06-02T07:07:34.985Z,39.6
2017-06-02T07:08:37.328Z,39.6
2017-06-02T07:09:40.176Z,40
2017-06-02T07:11:46.434Z,39.2
2017-06-02T07:12:49.528Z,38.7
2017-06-02T07:13:52.240Z,38.7
2017-06-02T07:14:55.095Z,38.8
2017-06-02T07:15:57.936Z,38.6
2017-06-02T07:17:00.780Z,38.6
2017-06-02T07:18:03.925Z,38.6
2017-06-02T07:19:06.636Z,39.3
2017-06-02T07:20:09.481Z,38.8
2017-06-02T07:21:12.559Z,38.3
2017-06-02T07:22:15.403Z,38.9
2017-06-02T07:23:18.550Z,38.2
2017-06-02T07:24:21.393Z,37.9
2017-06-02T07:25:24.108Z,37.8
2017-06-02T07:26:27.459Z,38.3
2017-06-02T07:27:30.173Z,38
2017-06-02T07:28:33.331Z,38.2
2017-06-02T07:29:36.176Z,38.1
2017-06-02T07:30:38.886Z,38.2
2017-06-02T07:32:44.647Z,38.7
2017-06-02T07:33:48.122Z,38.1
2017-06-02T07:34:50.699Z,38
2017-06-02T07:35:53.546Z,37.9
2017-06-02T07:37:59.675Z,37.5
2017-06-02T07:39:02.640Z,37
2017-06-02T07:40:05.483Z,37
2017-06-02T07:41:08.353Z,37.1
2017-06-02T07:42:11.066Z,38.2
2017-06-02T07:43:14.281Z,37.9
2017-06-02T07:44:17.376Z,37.8
2017-06-02T07:45:20.089Z,37
2017-06-02T07:46:22.942Z,37
2017-06-02T07:47:26.163Z,36.7
2017-06-02T07:48:29.010Z,36.7
2017-06-02T07:49:32.111Z,36.5
2017-06-02T07:50:34.824Z,36.5
2017-06-02T07:51:37.675Z,36.5
2017-06-02T07:53:43.937Z,37.6
2017-06-02T07:54:47.035Z,38
2017-06-02T07:55:49.875Z,38.9
2017-06-02T07:56:52.716Z,39.4
2017-06-02T07:57:55.561Z,37.7
2017-06-02T07:58:58.405Z,38
2017-06-02T08:00:01.502Z,37.4
2017-06-02T08:01:04.352Z,38
2017-06-02T08:02:07.200Z,39.7
2017-06-02T08:03:10.551Z,39.2
2017-06-02T08:04:13.262Z,39
2017-06-02T08:05:16.365Z,38.7
2017-06-02T08:06:19.219Z,38.3
2017-06-02T08:07:22.075Z,38.3
2017-06-02T08:08:25.166Z,37.8
2017-06-02T08:09:28.013Z,37.8
2017-06-02T08:10:31.108Z,38.1
2017-06-02T08:11:33.956Z,38
2017-06-02T08:12:36.666Z,37.7
2017-06-02T08:13:40.012Z,37.7
2017-06-02T08:14:42.590Z,37.1
2017-06-02T08:15:46.193Z,37.3
2017-06-02T08:16:48.536Z,36.7
2017-06-02T08:17:51.381Z,37.2
2017-06-02T08:18:54.730Z,37
2017-06-02T08:19:57.575Z,36.8
2017-06-02T08:21:00.672Z,36.7
2017-06-02T08:22:03.248Z,36.3
2017-06-02T08:23:06.385Z,36.1
2017-06-02T08:24:09.239Z,36
2017-06-02T08:25:12.084Z,36.5
2017-06-02T08:26:15.233Z,35.9
2017-06-02T08:27:18.079Z,35.5
2017-06-02T08:28:20.923Z,35.9
2017-06-02T08:30:27.052Z,35.6
2017-06-02T08:31:30.152Z,35.5
2017-06-02T08:32:32.997Z,35.1
2017-06-02T08:33:35.836Z,34.5
2017-06-02T08:34:38.678Z,34.9
2017-06-02T08:35:42.028Z,35.3
2017-06-02T08:36:44.989Z,35.3
2017-06-02T08:37:47.833Z,35.4
2017-06-02T08:38:50.677Z,35.8
2017-06-02T08:40:56.805Z,35.2
2017-06-02T08:43:02.870Z,34.7
2017-06-02T08:44:05.719Z,34.6
2017-06-02T08:45:08.297Z,35
2017-06-02T08:46:11.647Z,35.2
2017-06-02T08:47:14.359Z,34.6
2017-06-02T08:48:17.962Z,34.3
2017-06-02T08:49:20.302Z,34.5
2017-06-02T08:50:23.653Z,34.6
2017-06-02T08:51:26.365Z,33.8
2017-06-02T08:52:29.208Z,33.7
2017-06-02T08:53:32.675Z,33.5
2017-06-02T08:54:35.390Z,33.4
2017-06-02T08:55:38.232Z,33.9
2017-06-02T08:56:41.075Z,33.4
2017-06-02T08:57:44.290Z,33.3
2017-06-02T08:58:47.435Z,32.9
2017-06-02T08:59:50.278Z,32.3
2017-06-02T09:00:53.124Z,32.8
2017-06-02T09:01:55.976Z,32.2
2017-06-02T09:02:59.324Z,32.2
2017-06-02T09:04:02.422Z,32.6
2017-06-02T09:05:05.267Z,32.7
2017-06-02T09:06:08.114Z,32.6
2017-06-02T09:07:10.694Z,33
2017-06-02T09:08:14.054Z,32.9
2017-06-02T09:09:17.155Z,31.8
2017-06-02T09:10:20.001Z,30.4
2017-06-02T09:11:22.847Z,30.8
2017-06-02T09:12:25.689Z,30.8
2017-06-02T09:13:28.907Z,30.4
2017-06-02T09:14:32.011Z,30.7
2017-06-02T09:15:34.862Z,31
2017-06-02T09:16:37.714Z,29.8
2017-06-02T09:17:40.560Z,29.9
2017-06-02T09:18:43.914Z,29.1
2017-06-02T09:19:46.877Z,30.5
2017-06-02T09:20:49.749Z,31.1
2017-06-02T09:21:52.605Z,32.3
2017-06-02T09:22:55.317Z,31.6
2017-06-02T09:23:58.671Z,30.1
2017-06-02T09:25:01.774Z,30.4
2017-06-02T09:26:04.623Z,30
2017-06-02T09:27:07.335Z,30.2
2017-06-02T09:28:10.414Z,30.8
2017-06-02T09:29:13.492Z,31
2017-06-02T09:30:17.155Z,30.5
2017-06-02T09:31:19.496Z,31.1
2017-06-02T09:32:22.576Z,30.2
2017-06-02T09:33:25.281Z,30.7
2017-06-02T09:34:28.494Z,31
2017-06-02T09:35:31.591Z,31
2017-06-02T09:36:34.311Z,31.5
2017-06-02T09:38:40.493Z,27.6
2017-06-02T09:39:43.337Z,28.2
2017-06-02T09:40:46.991Z,29.9
2017-06-02T09:41:49.338Z,29.9
2017-06-02T09:42:52.691Z,30
2017-06-02T09:43:55.404Z,30.5
2017-06-02T09:44:58.254Z,30.9
2017-06-02T09:46:01.720Z,31.2
2017-06-02T09:47:04.565Z,31.2
2017-06-02T09:48:07.278Z,31.2
2017-06-02T09:49:10.493Z,30
2017-06-02T09:50:13.342Z,28.2
2017-06-02T09:52:19.856Z,25.4
2017-06-02T09:53:22.561Z,25.6
2017-06-02T09:54:25.642Z,25.2
2017-06-02T09:55:28.487Z,24.5
2017-06-02T09:56:31.333Z,25.5
2017-06-02T09:57:34.930Z,26.4
2017-06-02T09:58:37.268Z,26.6
2017-06-02T09:59:40.616Z,25
2017-06-02T10:01:46.390Z,25.1
2017-06-02T10:02:49.860Z,25
2017-06-02T10:03:52.201Z,24.2
2017-06-02T10:04:55.553Z,24.4
2017-06-02T10:05:58.266Z,23.8
2017-06-02T10:07:01.672Z,24.9
2017-06-02T10:09:07.546Z,23.8
2017-06-02T10:10:10.118Z,22.8
2017-06-02T10:11:13.468Z,23.7
2017-06-02T10:12:16.310Z,24.6
2017-06-02T10:13:19.666Z,24.2
2017-06-02T10:14:22.544Z,24.1
2017-06-02T10:15:25.233Z,23.5
2017-06-02T10:16:28.445Z,24
2017-06-02T10:17:31.660Z,23.6
2017-06-02T10:18:34.373Z,23.4
2017-06-02T10:19:37.476Z,23.6
2017-06-02T10:20:40.319Z,24
2017-06-02T10:22:46.586Z,23.3
2017-06-02T10:23:49.428Z,24.8
2017-06-02T10:24:52.527Z,25.2
2017-06-02T10:25:55.376Z,25.6
2017-06-02T10:26:58.222Z,25.7
2017-06-02T10:28:01.992Z,26.8
2017-06-02T10:29:04.329Z,27.4
2017-06-02T10:30:07.371Z,27.1
2017-06-02T10:31:10.085Z,26.7
2017-06-02T10:32:13.443Z,26.5
2017-06-02T10:33:16.288Z,27.5
2017-06-02T10:34:19.133Z,27.7
2017-06-02T10:35:22.603Z,28.2
2017-06-02T10:36:24.951Z,29.5
2017-06-02T10:37:28.169Z,30.2
2017-06-02T10:38:31.019Z,30.7
2017-06-02T10:39:34.371Z,31.2
2017-06-02T10:40:37.472Z,31
2017-06-02T10:41:40.221Z,30.9
2017-06-02T10:42:42.933Z,31.3
2017-06-02T10:43:46.146Z,31.4
2017-06-02T10:44:48.858Z,31.4
2017-06-02T10:45:52.327Z,31.3
2017-06-02T10:46:55.172Z,31.2
2017-06-02T10:47:58.020Z,31.2
2017-06-02T10:49:00.865Z,31.3
2017-06-02T10:50:03.580Z,32.3
2017-06-02T10:51:07.049Z,30.9
2017-06-02T10:52:09.761Z,30.9
2017-06-02T10:53:12.980Z,31.4
2017-06-02T10:54:15.695Z,30.8
2017-06-02T10:55:18.777Z,31.1
2017-06-02T10:56:21.874Z,31.2
2017-06-02T10:57:24.720Z,30
2017-06-02T10:58:27.443Z,30.1
2017-06-02T10:59:30.795Z,30.3
2017-06-02T11:00:33.503Z,30.2
2017-06-02T11:01:36.605Z,30.4
2017-06-02T11:02:39.452Z,28.9
2017-06-02T11:03:42.300Z,28.4
2017-06-02T11:04:45.655Z,28.4
2017-06-02T11:06:51.675Z,28.9
2017-06-02T11:07:54.524Z,28.6
2017-06-02T11:10:00.152Z,29.7
2017-06-02T11:11:02.997Z,29.2
2017-06-02T11:12:06.599Z,29.4
2017-06-02T11:13:09.315Z,29.5
2017-06-02T11:14:12.030Z,29.9
2017-06-02T11:15:14.877Z,29.5
2017-06-02T11:17:21.257Z,29.9
2017-06-02T11:18:24.101Z,28.7
2017-06-02T11:19:26.810Z,29.2
2017-06-02T11:20:29.664Z,29.9
2017-06-02T11:21:33.018Z,28.5
2017-06-02T11:22:36.113Z,27.7
2017-06-02T11:23:38.827Z,27.6
2017-06-02T11:24:41.407Z,28.2
2017-06-02T11:25:44.761Z,29.4
2017-06-02T11:26:47.609Z,29
2017-06-02T11:27:50.812Z,28.5
2017-06-02T11:28:53.661Z,28.5
2017-06-02T11:29:56.512Z,28.4
2017-06-02T11:30:59.228Z,29.1
2017-06-02T11:32:02.580Z,29.4
2017-06-02T11:33:05.684Z,29.6
2017-06-02T11:34:08.266Z,29.8
2017-06-02T11:35:11.479Z,29.4
2017-06-02T11:36:14.326Z,28.3
2017-06-02T11:37:17.038Z,28.7
2017-06-02T11:38:20.504Z,27.7
2017-06-02T11:39:23.350Z,28.5
2017-06-02T11:40:26.062Z,28.4
2017-06-02T11:41:28.912Z,29.3
2017-06-02T11:42:32.125Z,29.4
2017-06-02T11:43:35.219Z,30.1
2017-06-02T11:44:38.064Z,30.4
2017-06-02T11:45:40.907Z,29.9
2017-06-02T11:46:43.752Z,29.1
2017-06-02T11:47:46.829Z,28.8
2017-06-02T11:48:50.297Z,28.5
2017-06-02T11:51:58.702Z,30
2017-06-02T11:53:01.548Z,30.4
2017-06-02T11:54:04.646Z,30.8
2017-06-02T11:55:07.496Z,30.9
2017-06-02T11:56:10.712Z,30.7
2017-06-02T11:57:13.557Z,30.9
2017-06-02T11:58:16.267Z,31.2
2017-06-02T11:59:19.867Z,31
2017-06-02T12:00:22.208Z,31.1
2017-06-02T12:01:25.426Z,31.4
2017-06-02T12:02:28.274Z,31.3
2017-06-02T12:03:31.120Z,31.6
2017-06-02T12:04:34.585Z,31.8
2017-06-02T12:05:36.928Z,31.4
2017-06-02T12:06:40.142Z,30.5
2017-06-02T12:07:42.851Z,30.9
2017-06-02T12:08:45.838Z,31.4
2017-06-02T12:09:49.305Z,31.6
2017-06-02T12:10:52.153Z,31.5
2017-06-02T12:11:54.614Z,31.6
2017-06-02T12:12:57.993Z,31.9
2017-06-02T12:14:00.846Z,31.3
2017-06-02T12:15:03.811Z,31.7
2017-06-02T12:16:06.392Z,31.7
2017-06-02T12:17:09.746Z,31.6
2017-06-02T12:18:12.589Z,31.7
2017-06-02T12:19:15.670Z,32
2017-06-02T12:20:19.003Z,31.9
2017-06-02T12:21:21.341Z,32.3
2017-06-02T12:22:24.692Z,31.8
2017-06-02T12:23:27.533Z,31.5
2017-06-02T12:24:30.385Z,30.7
2017-06-02T12:25:33.537Z,30.3
2017-06-02T12:26:36.380Z,30.4
2017-06-02T12:27:39.226Z,30.5
2017-06-02T12:28:42.079Z,31
2017-06-02T12:29:45.431Z,31.5
2017-06-02T12:30:48.534Z,30.5
2017-06-02T12:31:51.259Z,30.9
2017-06-02T12:32:54.161Z,31.2
2017-06-02T12:33:57.007Z,31.6
2017-06-02T12:34:59.853Z,32.4
2017-06-02T12:36:03.456Z,32.7
2017-06-02T12:37:05.805Z,31.6
2017-06-02T12:38:09.151Z,30.6
2017-06-02T12:40:14.911Z,30.6
2017-06-02T12:41:17.873Z,31.1
2017-06-02T12:42:20.586Z,30.6
2017-06-02T12:43:23.940Z,30.6
2017-06-02T12:44:26.556Z,30.5
2017-06-02T12:45:29.775Z,31.2
2017-06-02T12:46:32.734Z,31.1
2017-06-02T12:47:36.208Z,31.7
2017-06-02T12:48:38.414Z,31.2
2017-06-02T12:49:41.764Z,31.6
2017-06-02T12:50:44.608Z,32.7
2017-06-02T12:51:47.753Z,33.4
2017-06-02T12:52:50.601Z,33.6
2017-06-02T12:53:53.451Z,33.2
2017-06-02T12:54:56.306Z,33.5
2017-06-02T12:55:59.010Z,33.4
2017-06-02T12:57:02.474Z,33.5
2017-06-02T12:58:05.373Z,32.9
2017-06-02T12:59:08.088Z,32.9
2017-06-02T13:00:11.435Z,32.6
2017-06-02T13:01:14.148Z,32.3
2017-06-02T13:02:17.108Z,32.8
2017-06-02T13:03:19.951Z,31.8
2017-06-02T13:04:23.165Z,32.7
2017-06-02T13:05:25.875Z,32.9
2017-06-02T13:06:29.217Z,33.6
2017-06-02T13:07:32.310Z,34.2
2017-06-02T13:08:35.016Z,33.9
2017-06-02T13:09:37.857Z,33.7
2017-06-02T13:10:41.069Z,33.5
2017-06-02T13:11:43.782Z,33.8
2017-06-02T13:12:47.252Z,33.7
2017-06-02T13:13:49.591Z,33.4
2017-06-02T13:14:52.938Z,32.8
2017-06-02T13:15:55.779Z,32.8
2017-06-02T13:16:58.857Z,32.9
2017-06-02T13:18:01.683Z,31.5
2017-06-02T13:19:04.533Z,31.8
2017-06-02T13:20:07.750Z,32.3
2017-06-02T13:21:10.458Z,32.1
2017-06-02T13:22:13.674Z,32.2
2017-06-02T13:23:16.818Z,32.7
2017-06-02T13:25:22.584Z,32.3
2017-06-02T13:26:25.431Z,32.4
2017-06-02T13:27:28.146Z,31.5
2017-06-02T13:28:31.745Z,31.7
2017-06-02T13:29:33.952Z,31.3
2017-06-02T13:30:37.302Z,31.4
2017-06-02T13:31:40.148Z,31.7
2017-06-02T13:32:42.995Z,32.2
2017-06-02T13:33:46.597Z,32
2017-06-02T13:34:48.937Z,31.6
2017-06-02T13:35:52.286Z,32.3
2017-06-02T13:36:54.995Z,32.8
2017-06-02T13:37:58.206Z,32.2
2017-06-02T13:39:01.301Z,32.8
2017-06-02T13:41:06.795Z,33
2017-06-02T13:42:10.144Z,32.6
2017-06-02T13:43:12.992Z,32.9
2017-06-02T13:44:16.088Z,32.5
2017-06-02T13:45:18.934Z,32.7
2017-06-02T13:46:21.649Z,32.1
2017-06-02T13:47:24.998Z,32.6
2017-06-02T13:48:27.841Z,33.2
2017-06-02T13:49:30.941Z,32.7
2017-06-02T13:50:33.655Z,32.7
2017-06-02T13:51:36.500Z,33.1
2017-06-02T13:52:39.847Z,33.4
2017-06-02T13:53:42.693Z,33.4
2017-06-02T13:54:45.794Z,34.1
2017-06-02T13:55:48.642Z,35
2017-06-02T13:56:51.490Z,33.8
2017-06-02T13:57:54.340Z,32
2017-06-02T13:58:57.551Z,32.6
2017-06-02T14:00:00.650Z,32.5
2017-06-02T14:01:03.498Z,33.1
2017-06-02T14:02:06.519Z,33
2017-06-02T14:03:09.366Z,33.2
2017-06-02T14:04:12.234Z,33.1
2017-06-02T14:05:15.344Z,33.1
2017-06-02T14:06:18.055Z,33.5
2017-06-02T14:07:21.270Z,32.9
2017-06-02T14:09:27.025Z,33.7
2017-06-02T14:11:33.452Z,32.8
2017-06-02T14:12:36.306Z,33
2017-06-02T14:13:39.148Z,32.7
2017-06-02T14:14:41.988Z,33.1
2017-06-02T14:15:44.834Z,33.5
2017-06-02T14:16:48.353Z,33.4
2017-06-02T14:17:51.197Z,33.1
2017-06-02T14:18:54.043Z,33.5
2017-06-02T14:19:56.747Z,33.7
2017-06-02T14:21:00.096Z,34.4
2017-06-02T14:22:03.195Z,33.8
2017-06-02T14:23:05.773Z,33.8
2017-06-02T14:24:08.644Z,33.2
2017-06-02T14:25:11.998Z,33
2017-06-02T14:26:14.715Z,34.3
2017-06-02T14:27:18.178Z,33
2017-06-02T14:28:20.382Z,32.6
2017-06-02T14:29:23.593Z,32.6
2017-06-02T14:30:26.435Z,32.2
2017-06-02T14:31:29.649Z,33
2017-06-02T14:33:36.025Z,33.3
2017-06-02T14:34:38.364Z,33.8
2017-06-02T14:35:41.714Z,34
2017-06-02T14:36:44.557Z,34.5